sensor_id;sensor_type;location;lat;lon;timestamp;pressure;altitude;pressure_sealevel;temperature;humidity
55460;BME280;41326;45.302;-122.946;2023-11-21T00:01:17;102223.74;;;16.53;53.87
55460;BME280;41326;45.302;-122.946;2023-11-21T00:03:48;102224.05;;;16.47;53.78
55460;BME280;41326;45.302;-122.946;2023-11-21T00:06:17;102217.48;;;16.47;53.61
55460;BME280;41326;45.302;-122.946;2023-11-21T00:08:48;102215.11;;;16.47;53.70
55460;BME280;41326;45.302;-122.946;2023-11-21T00:11:18;102218.44;;;16.43;53.96
55460;BME280;41326;45.302;-122.946;2023-11-21T00:13:49;102215.11;;;16.40;53.94
55460;BME280;41326;45.302;-122.946;2023-11-21T00:16:19;102209.50;;;16.39;53.88
55460;BME280;41326;45.302;-122.946;2023-11-21T00:18:49;102212.56;;;16.35;53.78
55460;BME280;41326;45.302;-122.946;2023-11-21T00:21:19;102213.70;;;16.30;53.91
55460;BME280;41326;45.302;-122.946;2023-11-21T00:23:50;102208.97;;;16.28;53.96
55460;BME280;41326;45.302;-122.946;2023-11-21T00:26:21;102214.21;;;16.33;53.62
55460;BME280;41326;45.302;-122.946;2023-11-21T00:28:52;102214.47;;;16.43;53.61
55460;BME280;41326;45.302;-122.946;2023-11-21T00:31:21;102217.73;;;16.52;53.30
55460;BME280;41326;45.302;-122.946;2023-11-21T00:33:51;102217.19;;;16.66;53.00
55460;BME280;41326;45.302;-122.946;2023-11-21T00:36:21;102220.18;;;16.86;52.54
55460;BME280;41326;45.302;-122.946;2023-11-21T00:38:51;102220.62;;;17.01;51.75
55460;BME280;41326;45.302;-122.946;2023-11-21T00:41:21;102212.91;;;17.17;51.37
55460;BME280;41326;45.302;-122.946;2023-11-21T00:43:52;102201.10;;;17.35;51.00
55460;BME280;41326;45.302;-122.946;2023-11-21T00:46:22;102199.30;;;17.49;50.83
55460;BME280;41326;45.302;-122.946;2023-11-21T00:48:52;102205.25;;;17.63;50.37
55460;BME280;41326;45.302;-122.946;2023-11-21T00:51:22;102205.39;;;17.72;50.00
55460;BME280;41326;45.302;-122.946;2023-11-21T00:53:53;102206.42;;;17.84;49.87
55460;BME280;41326;45.302;-122.946;2023-11-21T00:56:24;102212.80;;;17.94;49.20
55460;BME280;41326;45.302;-122.946;2023-11-21T00:58:54;102205.22;;;18.01;49.16
55460;BME280;41326;45.302;-122.946;2023-11-21T01:01:24;102205.47;;;18.08;48.85
55460;BME280;41326;45.302;-122.946;2023-11-21T01:03:54;102198.84;;;18.18;48.65
55460;BME280;41326;45.302;-122.946;2023-11-21T01:06:25;102208.97;;;18.27;48.57
55460;BME280;41326;45.302;-122.946;2023-11-21T01:08:56;102206.92;;;18.34;49.28
55460;BME280;41326;45.302;-122.946;2023-11-21T01:11:26;102203.15;;;18.53;49.78
55460;BME280;41326;45.302;-122.946;2023-11-21T01:13:56;102206.18;;;18.72;50.01
55460;BME280;41326;45.302;-122.946;2023-11-21T01:16:26;102209.86;;;18.89;49.91
55460;BME280;41326;45.302;-122.946;2023-11-21T01:18:58;102214.09;;;18.85;50.24
55460;BME280;41326;45.302;-122.946;2023-11-21T01:21:27;102215.11;;;18.75;50.72
55460;BME280;41326;45.302;-122.946;2023-11-21T01:23:57;102216.25;;;18.60;51.25
55460;BME280;41326;45.302;-122.946;2023-11-21T01:26:28;102213.40;;;18.51;51.84
55460;BME280;41326;45.302;-122.946;2023-11-21T01:28:58;102209.42;;;18.58;52.13
55460;BME280;41326;45.302;-122.946;2023-11-21T01:32:37;102205.66;;;18.80;51.99
55460;BME280;41326;45.302;-122.946;2023-11-21T01:35:07;102205.14;;;18.80;51.99
55460;BME280;41326;45.302;-122.946;2023-11-21T01:37:37;102208.56;;;18.74;52.31
55460;BME280;41326;45.302;-122.946;2023-11-21T01:40:08;102212.11;;;18.67;52.62
55460;BME280;41326;45.302;-122.946;2023-11-21T01:42:37;102213.79;;;18.59;52.99
55460;BME280;41326;45.302;-122.946;2023-11-21T01:45:09;102210.67;;;18.49;53.49
55460;BME280;41326;45.302;-122.946;2023-11-21T01:47:39;102208.28;;;18.41;53.79
55460;BME280;41326;45.302;-122.946;2023-11-21T01:50:09;102210.27;;;18.33;54.13
55460;BME280;41326;45.302;-122.946;2023-11-21T01:52:46;102214.74;;;18.34;54.34
55460;BME280;41326;45.302;-122.946;2023-11-21T01:55:17;102220.18;;;18.47;54.20
55460;BME280;41326;45.302;-122.946;2023-11-21T01:57:46;102221.91;;;18.71;54.04
55460;BME280;41326;45.302;-122.946;2023-11-21T02:00:16;102219.09;;;18.81;54.85
55460;BME280;41326;45.302;-122.946;2023-11-21T02:02:46;102219.77;;;18.81;56.26
55460;BME280;41326;45.302;-122.946;2023-11-21T02:05:17;102213.06;;;18.85;57.75
55460;BME280;41326;45.302;-122.946;2023-11-21T02:07:47;102204.99;;;18.85;58.65
55460;BME280;41326;45.302;-122.946;2023-11-21T02:10:17;102199.92;;;18.81;59.79
55460;BME280;41326;45.302;-122.946;2023-11-21T02:12:48;102195.66;;;18.78;60.04
55460;BME280;41326;45.302;-122.946;2023-11-21T02:15:19;102191.99;;;18.74;59.71
55460;BME280;41326;45.302;-122.946;2023-11-21T02:17:48;102187.76;;;18.67;59.56
55460;BME280;41326;45.302;-122.946;2023-11-21T02:20:18;102185.77;;;18.62;59.23
55460;BME280;41326;45.302;-122.946;2023-11-21T02:22:50;102190.58;;;18.59;59.09
55460;BME280;41326;45.302;-122.946;2023-11-21T02:25:19;102196.50;;;18.58;59.16
55460;BME280;41326;45.302;-122.946;2023-11-21T02:27:49;102200.55;;;18.55;59.40
55460;BME280;41326;45.302;-122.946;2023-11-21T02:30:20;102194.61;;;18.52;60.10
55460;BME280;41326;45.302;-122.946;2023-11-21T02:32:49;102188.37;;;18.53;60.72
55460;BME280;41326;45.302;-122.946;2023-11-21T02:35:20;102191.78;;;18.54;60.64
55460;BME280;41326;45.302;-122.946;2023-11-21T02:37:51;102196.28;;;18.54;61.02
55460;BME280;41326;45.302;-122.946;2023-11-21T02:40:21;102200.42;;;18.58;61.25
55460;BME280;41326;45.302;-122.946;2023-11-21T02:42:51;102206.58;;;18.59;61.06
55460;BME280;41326;45.302;-122.946;2023-11-21T02:45:21;102204.30;;;18.66;60.63
55460;BME280;41326;45.302;-122.946;2023-11-21T02:47:52;102200.46;;;18.70;60.57
55460;BME280;41326;45.302;-122.946;2023-11-21T02:50:22;102204.59;;;18.71;60.36
55460;BME280;41326;45.302;-122.946;2023-11-21T02:52:53;102208.22;;;18.70;58.94
55460;BME280;41326;45.302;-122.946;2023-11-21T02:55:23;102216.73;;;18.64;58.06
55460;BME280;41326;45.302;-122.946;2023-11-21T02:57:53;102223.94;;;18.58;57.04
55460;BME280;41326;45.302;-122.946;2023-11-21T03:00:23;102220.37;;;18.56;56.26
55460;BME280;41326;45.302;-122.946;2023-11-21T03:02:54;102214.75;;;18.48;55.57
55460;BME280;41326;45.302;-122.946;2023-11-21T03:05:24;102208.49;;;18.41;55.26
55460;BME280;41326;45.302;-122.946;2023-11-21T03:07:55;102209.18;;;18.34;55.14
55460;BME280;41326;45.302;-122.946;2023-11-21T03:10:26;102205.92;;;18.26;54.95
55460;BME280;41326;45.302;-122.946;2023-11-21T03:12:55;102207.96;;;18.23;54.68
55460;BME280;41326;45.302;-122.946;2023-11-21T03:15:26;102201.45;;;18.20;54.38
55460;BME280;41326;45.302;-122.946;2023-11-21T03:17:57;102195.22;;;18.14;54.87
55460;BME280;41326;45.302;-122.946;2023-11-21T03:20:27;102188.15;;;18.19;55.57
55460;BME280;41326;45.302;-122.946;2023-11-21T03:22:58;102188.66;;;18.37;55.81
55460;BME280;41326;45.302;-122.946;2023-11-21T03:25:29;102185.04;;;18.55;55.80
55460;BME280;41326;45.302;-122.946;2023-11-21T03:28:00;102179.95;;;18.58;56.11
55460;BME280;41326;45.302;-122.946;2023-11-21T03:30:28;102184.97;;;18.63;56.12
55460;BME280;41326;45.302;-122.946;2023-11-21T03:32:59;102193.91;;;18.61;56.19
55460;BME280;41326;45.302;-122.946;2023-11-21T03:35:32;102201.85;;;18.55;56.36
55460;BME280;41326;45.302;-122.946;2023-11-21T03:37:59;102203.18;;;18.53;56.33
55460;BME280;41326;45.302;-122.946;2023-11-21T03:40:29;102203.22;;;18.52;56.30
55460;BME280;41326;45.302;-122.946;2023-11-21T03:43:00;102200.56;;;18.48;56.43
55460;BME280;41326;45.302;-122.946;2023-11-21T03:45:31;102200.27;;;18.44;56.51
55460;BME280;41326;45.302;-122.946;2023-11-21T03:48:01;102193.68;;;18.40;56.65
55460;BME280;41326;45.302;-122.946;2023-11-21T03:50:31;102193.44;;;18.40;56.66
55460;BME280;41326;45.302;-122.946;2023-11-21T03:53:02;102185.57;;;18.37;56.82
55460;BME280;41326;45.302;-122.946;2023-11-21T03:55:31;102170.60;;;18.37;56.75
55460;BME280;41326;45.302;-122.946;2023-11-21T03:58:01;102156.06;;;18.38;56.74
55460;BME280;41326;45.302;-122.946;2023-11-21T04:00:31;102156.86;;;18.35;56.84
55460;BME280;41326;45.302;-122.946;2023-11-21T04:03:02;102162.20;;;18.36;56.83
55460;BME280;41326;45.302;-122.946;2023-11-21T04:05:33;102169.44;;;18.33;56.90
55460;BME280;41326;45.302;-122.946;2023-11-21T04:08:02;102172.32;;;18.29;57.00
55460;BME280;41326;45.302;-122.946;2023-11-21T04:10:33;102170.45;;;18.23;57.16
55460;BME280;41326;45.302;-122.946;2023-11-21T04:13:03;102173.43;;;18.24;57.11
55460;BME280;41326;45.302;-122.946;2023-11-21T04:15:33;102173.07;;;18.24;57.11
55460;BME280;41326;45.302;-122.946;2023-11-21T04:18:04;102172.97;;;18.29;57.00
55460;BME280;41326;45.302;-122.946;2023-11-21T04:20:34;102170.06;;;18.39;56.80
55460;BME280;41326;45.302;-122.946;2023-11-21T04:23:04;102166.96;;;18.59;56.32
55460;BME280;41326;45.302;-122.946;2023-11-21T04:25:35;102167.40;;;18.61;56.07
55460;BME280;41326;45.302;-122.946;2023-11-21T04:28:05;102172.54;;;18.62;56.03
55460;BME280;41326;45.302;-122.946;2023-11-21T04:30:35;102177.25;;;18.58;56.15
55460;BME280;41326;45.302;-122.946;2023-11-21T04:33:05;102181.21;;;18.53;56.27
55460;BME280;41326;45.302;-122.946;2023-11-21T04:35:35;102190.54;;;18.51;56.31
55460;BME280;41326;45.302;-122.946;2023-11-21T04:38:06;102199.28;;;18.48;56.37
55460;BME280;41326;45.302;-122.946;2023-11-21T04:40:36;102199.00;;;18.44;56.46
55460;BME280;41326;45.302;-122.946;2023-11-21T04:43:07;102198.76;;;18.38;56.59
55460;BME280;41326;45.302;-122.946;2023-11-21T04:45:37;102197.88;;;18.32;56.77
55460;BME280;41326;45.302;-122.946;2023-11-21T04:48:07;102197.00;;;18.27;56.95
55460;BME280;41326;45.302;-122.946;2023-11-21T04:50:37;102195.04;;;18.21;57.10
55460;BME280;41326;45.302;-122.946;2023-11-21T04:53:07;102192.73;;;18.15;57.26
55460;BME280;41326;45.302;-122.946;2023-11-21T04:55:37;102185.48;;;18.11;57.36
55460;BME280;41326;45.302;-122.946;2023-11-21T04:58:08;102183.36;;;18.08;57.37
55460;BME280;41326;45.302;-122.946;2023-11-21T05:00:38;102180.12;;;18.06;57.37
55460;BME280;41326;45.302;-122.946;2023-11-21T05:03:09;102175.30;;;18.04;57.38
55460;BME280;41326;45.302;-122.946;2023-11-21T05:05:39;102172.51;;;18.02;57.44
55460;BME280;41326;45.302;-122.946;2023-11-21T05:08:09;102179.20;;;17.99;57.50
55460;BME280;41326;45.302;-122.946;2023-11-21T05:10:39;102177.52;;;18.08;57.28
55460;BME280;41326;45.302;-122.946;2023-11-21T05:13:10;102168.61;;;18.23;56.85
55460;BME280;41326;45.302;-122.946;2023-11-21T05:15:40;102158.15;;;18.44;56.31
55460;BME280;41326;45.302;-122.946;2023-11-21T05:18:10;102145.67;;;18.56;55.85
55460;BME280;41326;45.302;-122.946;2023-11-21T05:20:41;102140.18;;;18.52;55.84
55460;BME280;41326;45.302;-122.946;2023-11-21T05:23:11;102133.59;;;18.50;55.96
55460;BME280;41326;45.302;-122.946;2023-11-21T05:25:41;102134.92;;;18.45;56.13
55460;BME280;41326;45.302;-122.946;2023-11-21T05:28:12;102133.22;;;18.40;56.29
55460;BME280;41326;45.302;-122.946;2023-11-21T05:30:42;102136.64;;;18.31;56.56
55460;BME280;41326;45.302;-122.946;2023-11-21T05:33:13;102138.55;;;18.21;56.88
55460;BME280;41326;45.302;-122.946;2023-11-21T05:35:43;102144.27;;;18.20;57.03
55460;BME280;41326;45.302;-122.946;2023-11-21T05:38:14;102143.00;;;18.17;57.19
55460;BME280;41326;45.302;-122.946;2023-11-21T05:40:43;102140.83;;;18.18;57.29
55460;BME280;41326;45.302;-122.946;2023-11-21T05:43:13;102137.95;;;18.14;57.41
55460;BME280;41326;45.302;-122.946;2023-11-21T05:45:44;102146.03;;;18.10;57.53
55460;BME280;41326;45.302;-122.946;2023-11-21T05:48:15;102146.40;;;18.12;57.48
55460;BME280;41326;45.302;-122.946;2023-11-21T05:50:46;102146.58;;;18.16;57.39
55460;BME280;41326;45.302;-122.946;2023-11-21T05:53:15;102145.61;;;18.30;57.00
55460;BME280;41326;45.302;-122.946;2023-11-21T05:55:45;102135.61;;;18.50;56.49
55460;BME280;41326;45.302;-122.946;2023-11-21T05:58:16;102138.62;;;18.61;56.04
55460;BME280;41326;45.302;-122.946;2023-11-21T06:00:46;102128.52;;;18.61;56.04
55460;BME280;41326;45.302;-122.946;2023-11-21T06:03:17;102112.65;;;18.52;56.21
55460;BME280;41326;45.302;-122.946;2023-11-21T06:05:47;102105.93;;;18.51;56.26
55460;BME280;41326;45.302;-122.946;2023-11-21T06:08:17;102112.76;;;18.44;56.43
55460;BME280;41326;45.302;-122.946;2023-11-21T06:10:47;102108.24;;;18.36;56.60
55460;BME280;41326;45.302;-122.946;2023-11-21T06:13:18;102109.03;;;18.28;56.82
55460;BME280;41326;45.302;-122.946;2023-11-21T06:15:48;102104.49;;;18.26;56.80
55460;BME280;41326;45.302;-122.946;2023-11-21T06:18:19;102109.36;;;18.23;56.79
55460;BME280;41326;45.302;-122.946;2023-11-21T06:20:48;102110.93;;;18.13;57.00
55460;BME280;41326;45.302;-122.946;2023-11-21T06:23:19;102105.31;;;18.08;57.10
55460;BME280;41326;45.302;-122.946;2023-11-21T06:25:49;102105.32;;;18.08;57.06
55460;BME280;41326;45.302;-122.946;2023-11-21T06:28:20;102114.71;;;18.08;56.99
55460;BME280;41326;45.302;-122.946;2023-11-21T06:30:50;102118.32;;;18.03;57.08
55460;BME280;41326;45.302;-122.946;2023-11-21T06:33:20;102106.35;;;17.96;57.23
55460;BME280;41326;45.302;-122.946;2023-11-21T06:35:50;102093.22;;;17.93;57.22
55460;BME280;41326;45.302;-122.946;2023-11-21T06:38:21;102091.31;;;17.95;57.10
55460;BME280;41326;45.302;-122.946;2023-11-21T06:40:51;102086.64;;;17.89;57.18
55460;BME280;41326;45.302;-122.946;2023-11-21T06:43:21;102083.05;;;17.86;57.23
55460;BME280;41326;45.302;-122.946;2023-11-21T06:45:51;102083.41;;;17.86;57.16
55460;BME280;41326;45.302;-122.946;2023-11-21T06:48:22;102083.81;;;17.85;57.14
55460;BME280;41326;45.302;-122.946;2023-11-21T06:50:52;102083.01;;;17.83;57.15
55460;BME280;41326;45.302;-122.946;2023-11-21T06:53:22;102079.99;;;17.84;57.13
55460;BME280;41326;45.302;-122.946;2023-11-21T06:55:52;102082.45;;;17.85;57.10
55460;BME280;41326;45.302;-122.946;2023-11-21T06:58:22;102091.46;;;17.82;57.04
55460;BME280;41326;45.302;-122.946;2023-11-21T07:00:53;102099.35;;;17.78;57.10
55460;BME280;41326;45.302;-122.946;2023-11-21T07:03:23;102097.85;;;17.75;57.21
55460;BME280;41326;45.302;-122.946;2023-11-21T07:05:53;102089.07;;;17.75;57.15
55460;BME280;41326;45.302;-122.946;2023-11-21T07:08:23;102083.77;;;17.77;57.08
55460;BME280;41326;45.302;-122.946;2023-11-21T07:10:53;102080.84;;;17.73;57.18
55460;BME280;41326;45.302;-122.946;2023-11-21T07:13:24;102080.71;;;17.67;57.36
55460;BME280;41326;45.302;-122.946;2023-11-21T07:15:54;102072.96;;;17.67;57.36
55460;BME280;41326;45.302;-122.946;2023-11-21T07:18:24;102064.25;;;17.65;57.36
55460;BME280;41326;45.302;-122.946;2023-11-21T07:20:55;102058.46;;;17.58;57.51
55460;BME280;41326;45.302;-122.946;2023-11-21T07:23:25;102054.57;;;17.59;57.54
55460;BME280;41326;45.302;-122.946;2023-11-21T07:25:55;102049.07;;;17.58;57.54
55460;BME280;41326;45.302;-122.946;2023-11-21T07:28:26;102044.07;;;17.56;57.59
55460;BME280;41326;45.302;-122.946;2023-11-21T07:30:56;102038.58;;;17.55;57.65
55460;BME280;41326;45.302;-122.946;2023-11-21T07:33:26;102037.08;;;17.52;57.75
55460;BME280;41326;45.302;-122.946;2023-11-21T07:35:56;102038.82;;;17.50;57.77
55460;BME280;41326;45.302;-122.946;2023-11-21T07:38:27;102026.20;;;17.46;57.86
55460;BME280;41326;45.302;-122.946;2023-11-21T07:40:57;102017.13;;;17.46;57.83
55460;BME280;41326;45.302;-122.946;2023-11-21T07:43:27;102013.86;;;17.44;57.92
55460;BME280;41326;45.302;-122.946;2023-11-21T07:45:57;102015.78;;;17.41;58.00
55460;BME280;41326;45.302;-122.946;2023-11-21T07:48:28;102011.59;;;17.42;58.03
55460;BME280;41326;45.302;-122.946;2023-11-21T07:50:58;102006.54;;;17.38;58.08
55460;BME280;41326;45.302;-122.946;2023-11-21T07:53:29;102002.86;;;17.37;58.15
55460;BME280;41326;45.302;-122.946;2023-11-21T07:56:02;101999.71;;;17.38;58.11
55460;BME280;41326;45.302;-122.946;2023-11-21T07:58:30;101993.38;;;17.37;58.11
55460;BME280;41326;45.302;-122.946;2023-11-21T08:01:00;101980.47;;;17.35;58.15
55460;BME280;41326;45.302;-122.946;2023-11-21T08:03:30;101976.17;;;17.34;58.19
55460;BME280;41326;45.302;-122.946;2023-11-21T08:06:00;101974.03;;;17.35;58.21
55460;BME280;41326;45.302;-122.946;2023-11-21T08:08:31;101974.42;;;17.36;58.16
55460;BME280;41326;45.302;-122.946;2023-11-21T08:11:01;101967.46;;;17.33;58.26
55460;BME280;41326;45.302;-122.946;2023-11-21T08:13:32;101971.44;;;17.29;58.37
55460;BME280;41326;45.302;-122.946;2023-11-21T08:16:02;101972.11;;;17.26;58.51
55460;BME280;41326;45.302;-122.946;2023-11-21T08:18:32;101968.17;;;17.24;58.54
55460;BME280;41326;45.302;-122.946;2023-11-21T08:21:03;101965.30;;;17.24;58.51
55460;BME280;41326;45.302;-122.946;2023-11-21T08:23:33;101968.38;;;17.23;58.62
55460;BME280;41326;45.302;-122.946;2023-11-21T08:26:04;101968.26;;;17.22;58.63
55460;BME280;41326;45.302;-122.946;2023-11-21T08:28:34;101966.50;;;17.23;58.67
55460;BME280;41326;45.302;-122.946;2023-11-21T08:31:04;101963.26;;;17.19;58.82
55460;BME280;41326;45.302;-122.946;2023-11-21T08:33:35;101952.69;;;17.16;58.92
55460;BME280;41326;45.302;-122.946;2023-11-21T08:36:06;101959.56;;;17.16;58.96
55460;BME280;41326;45.302;-122.946;2023-11-21T08:38:35;101960.69;;;17.14;59.02
55460;BME280;41326;45.302;-122.946;2023-11-21T08:41:05;101955.21;;;17.14;58.98
55460;BME280;41326;45.302;-122.946;2023-11-21T08:43:36;101957.48;;;17.12;59.03
55460;BME280;41326;45.302;-122.946;2023-11-21T08:46:06;101964.70;;;17.12;59.09
55460;BME280;41326;45.302;-122.946;2023-11-21T08:48:37;101960.79;;;17.09;59.24
55460;BME280;41326;45.302;-122.946;2023-11-21T08:51:09;101945.68;;;17.09;59.27
55460;BME280;41326;45.302;-122.946;2023-11-21T08:53:37;101941.40;;;17.04;59.40
55460;BME280;41326;45.302;-122.946;2023-11-21T08:56:08;101948.69;;;17.03;59.41
55460;BME280;41326;45.302;-122.946;2023-11-21T08:58:37;101938.23;;;17.00;59.55
55460;BME280;41326;45.302;-122.946;2023-11-21T09:01:08;101933.44;;;16.97;59.71
55460;BME280;41326;45.302;-122.946;2023-11-21T09:03:39;101933.23;;;16.94;59.93
55460;BME280;41326;45.302;-122.946;2023-11-21T09:06:08;101937.95;;;16.94;60.01
55460;BME280;41326;45.302;-122.946;2023-11-21T09:08:39;101931.60;;;16.95;59.93
55460;BME280;41326;45.302;-122.946;2023-11-21T09:11:09;101929.72;;;16.93;60.03
55460;BME280;41326;45.302;-122.946;2023-11-21T09:13:39;101938.58;;;16.92;60.14
55460;BME280;41326;45.302;-122.946;2023-11-21T09:16:10;101942.69;;;16.91;60.17
55460;BME280;41326;45.302;-122.946;2023-11-21T09:18:40;101936.55;;;16.88;60.25
55460;BME280;41326;45.302;-122.946;2023-11-21T09:21:10;101936.10;;;16.87;60.24
55460;BME280;41326;45.302;-122.946;2023-11-21T09:23:42;101927.93;;;16.85;60.25
55460;BME280;41326;45.302;-122.946;2023-11-21T09:26:11;101919.20;;;16.87;60.28
55460;BME280;41326;45.302;-122.946;2023-11-21T09:28:41;101918.25;;;16.85;60.30
55460;BME280;41326;45.302;-122.946;2023-11-21T09:31:11;101920.18;;;16.85;60.28
55460;BME280;41326;45.302;-122.946;2023-11-21T09:33:42;101922.16;;;16.83;60.36
55460;BME280;41326;45.302;-122.946;2023-11-21T09:36:16;101918.71;;;16.83;60.35
55460;BME280;41326;45.302;-122.946;2023-11-21T09:38:42;101915.33;;;16.81;60.35
55460;BME280;41326;45.302;-122.946;2023-11-21T09:41:19;101914.83;;;16.76;60.41
55460;BME280;41326;45.302;-122.946;2023-11-21T09:43:43;101926.09;;;16.72;60.50
55460;BME280;41326;45.302;-122.946;2023-11-21T09:46:15;101924.43;;;16.74;60.57
55460;BME280;41326;45.302;-122.946;2023-11-21T09:48:44;101912.43;;;16.74;60.55
55460;BME280;41326;45.302;-122.946;2023-11-21T09:51:14;101903.24;;;16.73;60.60
55460;BME280;41326;45.302;-122.946;2023-11-21T09:53:44;101901.79;;;16.73;60.57
55460;BME280;41326;45.302;-122.946;2023-11-21T09:56:17;101896.20;;;16.74;60.51
55460;BME280;41326;45.302;-122.946;2023-11-21T09:58:45;101891.02;;;16.70;60.52
55460;BME280;41326;45.302;-122.946;2023-11-21T10:01:15;101896.76;;;16.72;60.48
55460;BME280;41326;45.302;-122.946;2023-11-21T10:03:46;101906.85;;;16.70;60.50
55460;BME280;41326;45.302;-122.946;2023-11-21T10:06:16;101911.20;;;16.70;60.58
55460;BME280;41326;45.302;-122.946;2023-11-21T10:08:46;101909.60;;;16.67;60.61
55460;BME280;41326;45.302;-122.946;2023-11-21T10:11:16;101908.24;;;16.66;60.68
55460;BME280;41326;45.302;-122.946;2023-11-21T10:13:47;101903.41;;;16.65;60.66
55460;BME280;41326;45.302;-122.946;2023-11-21T10:16:17;101902.56;;;16.63;60.72
55460;BME280;41326;45.302;-122.946;2023-11-21T10:18:48;101902.79;;;16.64;60.58
55460;BME280;41326;45.302;-122.946;2023-11-21T10:21:17;101899.82;;;16.63;60.57
55460;BME280;41326;45.302;-122.946;2023-11-21T10:23:47;101893.48;;;16.61;60.61
55460;BME280;41326;45.302;-122.946;2023-11-21T10:26:17;101891.10;;;16.58;60.66
55460;BME280;41326;45.302;-122.946;2023-11-21T10:28:56;101894.94;;;16.60;60.70
55460;BME280;41326;45.302;-122.946;2023-11-21T10:31:19;101899.90;;;16.59;60.68
55460;BME280;41326;45.302;-122.946;2023-11-21T10:33:48;101900.14;;;16.59;60.68
55460;BME280;41326;45.302;-122.946;2023-11-21T10:38:49;101896.69;;;16.60;60.55
55460;BME280;41326;45.302;-122.946;2023-11-21T10:41:20;101887.83;;;16.59;60.46
55460;BME280;41326;45.302;-122.946;2023-11-21T10:43:52;101890.17;;;16.57;60.52
55460;BME280;41326;45.302;-122.946;2023-11-21T10:46:20;101898.83;;;16.56;60.55
55460;BME280;41326;45.302;-122.946;2023-11-21T10:48:52;101896.34;;;16.53;60.69
55460;BME280;41326;45.302;-122.946;2023-11-21T10:51:21;101888.94;;;16.52;60.73
55460;BME280;41326;45.302;-122.946;2023-11-21T10:53:51;101887.37;;;16.49;60.79
55460;BME280;41326;45.302;-122.946;2023-11-21T10:56:23;101889.25;;;16.52;60.76
55460;BME280;41326;45.302;-122.946;2023-11-21T10:58:53;101887.64;;;16.52;60.71
55460;BME280;41326;45.302;-122.946;2023-11-21T11:01:23;101878.18;;;16.49;60.67
55460;BME280;41326;45.302;-122.946;2023-11-21T11:03:53;101869.78;;;16.48;60.65
55460;BME280;41326;45.302;-122.946;2023-11-21T11:06:23;101873.31;;;16.48;60.63
55460;BME280;41326;45.302;-122.946;2023-11-21T11:08:53;101879.83;;;16.49;60.62
55460;BME280;41326;45.302;-122.946;2023-11-21T11:11:23;101875.03;;;16.50;60.60
55460;BME280;41326;45.302;-122.946;2023-11-21T11:13:53;101872.58;;;16.49;60.59
55460;BME280;41326;45.302;-122.946;2023-11-21T11:16:23;101873.61;;;16.48;60.60
55460;BME280;41326;45.302;-122.946;2023-11-21T11:18:54;101876.89;;;16.47;60.57
55460;BME280;41326;45.302;-122.946;2023-11-21T11:21:33;101877.62;;;16.44;60.57
55460;BME280;41326;45.302;-122.946;2023-11-21T11:24:08;101869.11;;;16.46;60.46
55460;BME280;41326;45.302;-122.946;2023-11-21T11:26:32;101865.44;;;16.42;60.57
55460;BME280;41326;45.302;-122.946;2023-11-21T11:29:04;101861.46;;;16.38;60.71
55460;BME280;41326;45.302;-122.946;2023-11-21T11:31:33;101861.70;;;16.39;60.65
55460;BME280;41326;45.302;-122.946;2023-11-21T11:34:00;101864.50;;;16.37;60.77
55460;BME280;41326;45.302;-122.946;2023-11-21T11:36:31;101873.06;;;16.36;60.81
55460;BME280;41326;45.302;-122.946;2023-11-21T11:38:56;101883.91;;;16.35;60.82
55460;BME280;41326;45.302;-122.946;2023-11-21T11:41:32;101892.14;;;16.30;60.93
55460;BME280;41326;45.302;-122.946;2023-11-21T11:43:57;101882.74;;;16.29;60.93
55460;BME280;41326;45.302;-122.946;2023-11-21T11:49:02;101873.81;;;16.27;61.09
55460;BME280;41326;45.302;-122.946;2023-11-21T11:51:27;101881.90;;;16.28;61.07
55460;BME280;41326;45.302;-122.946;2023-11-21T11:53:57;101883.73;;;16.28;61.03
55460;BME280;41326;45.302;-122.946;2023-11-21T11:56:30;101874.15;;;16.27;61.03
55460;BME280;41326;45.302;-122.946;2023-11-21T11:59:00;101879.62;;;16.26;60.94
55460;BME280;41326;45.302;-122.946;2023-11-21T12:02:36;101895.13;;;16.22;60.97
55460;BME280;41326;45.302;-122.946;2023-11-21T12:05:09;101896.51;;;16.23;60.95
55460;BME280;41326;45.302;-122.946;2023-11-21T12:07:44;101888.50;;;16.23;60.94
55460;BME280;41326;45.302;-122.946;2023-11-21T12:10:06;101884.21;;;16.23;60.90
55460;BME280;41326;45.302;-122.946;2023-11-21T12:12:36;101870.95;;;16.22;60.94
55460;BME280;41326;45.302;-122.946;2023-11-21T12:15:06;101860.49;;;16.18;61.03
55460;BME280;41326;45.302;-122.946;2023-11-21T12:17:36;101858.29;;;16.15;61.10
55460;BME280;41326;45.302;-122.946;2023-11-21T12:20:08;101857.66;;;16.14;61.01
55460;BME280;41326;45.302;-122.946;2023-11-21T12:22:36;101852.36;;;16.13;60.99
55460;BME280;41326;45.302;-122.946;2023-11-21T12:25:07;101850.29;;;16.15;60.91
55460;BME280;41326;45.302;-122.946;2023-11-21T12:27:37;101853.42;;;16.12;60.95
55460;BME280;41326;45.302;-122.946;2023-11-21T12:30:07;101846.17;;;16.11;60.99
55460;BME280;41326;45.302;-122.946;2023-11-21T12:32:37;101848.07;;;16.09;61.01
55460;BME280;41326;45.302;-122.946;2023-11-21T12:35:09;101861.23;;;16.10;61.01
55460;BME280;41326;45.302;-122.946;2023-11-21T12:37:38;101874.34;;;16.11;60.98
55460;BME280;41326;45.302;-122.946;2023-11-21T12:40:10;101882.04;;;16.05;61.11
55460;BME280;41326;45.302;-122.946;2023-11-21T12:42:40;101892.07;;;16.03;61.15